sensor_id;sensor_type;location;lat;lon;timestamp;pressure;altitude;pressure_sealevel;temperature;humidity
58243;BME280;50118;53.232;8.252;2023-08-30T00:01:41;100665.69;;;12.38;100.00
58243;BME280;50118;53.232;8.252;2023-08-30T00:04:07;100660.91;;;12.41;100.00
58243;BME280;50118;53.232;8.252;2023-08-30T00:06:33;100655.00;;;12.38;100.00
58243;BME280;50118;53.232;8.252;2023-08-30T00:08:58;100666.06;;;12.43;100.00
58243;BME280;50118;53.232;8.252;2023-08-30T00:11:24;100661.78;;;12.50;100.00
58243;BME280;50118;53.232;8.252;2023-08-30T00:13:53;100657.41;;;12.49;100.00
58243;BME280;50118;53.232;8.252;2023-08-30T00:16:25;100663.94;;;12.55;100.00
58243;BME280;50118;53.232;8.252;2023-08-30T00:18:54;100660.31;;;12.64;100.00
58243;BME280;50118;53.232;8.252;2023-08-30T00:21:19;100663.47;;;12.59;100.00
58243;BME280;50118;53.232;8.252;2023-08-30T00:23:49;100658.75;;;12.53;100.00
58243;BME280;50118;53.232;8.252;2023-08-30T00:26:17;100652.91;;;12.49;100.00
58243;BME280;50118;53.232;8.252;2023-08-30T00:28:43;100658.94;;;12.51;100.00
58243;BME280;50118;53.232;8.252;2023-08-30T00:31:08;100656.44;;;12.50;100.00
58243;BME280;50118;53.232;8.252;2023-08-30T00:33:34;100643.91;;;12.50;100.00
58243;BME280;50118;53.232;8.252;2023-08-30T00:36:00;100650.78;;;12.61;100.00
58243;BME280;50118;53.232;8.252;2023-08-30T00:38:27;100651.13;;;12.66;100.00
58243;BME280;50118;53.232;8.252;2023-08-30T00:40:53;100646.50;;;12.68;100.00
58243;BME280;50118;53.232;8.252;2023-08-30T00:43:28;100642.75;;;12.61;100.00
58243;BME280;50118;53.232;8.252;2023-08-30T00:45:53;100647.44;;;12.59;100.00
58243;BME280;50118;53.232;8.252;2023-08-30T00:48:20;100644.44;;;12.62;100.00
58243;BME280;50118;53.232;8.252;2023-08-30T00:50:46;100648.47;;;12.66;100.00
58243;BME280;50118;53.232;8.252;2023-08-30T00:53:15;100637.09;;;12.64;100.00
58243;BME280;50118;53.232;8.252;2023-08-30T00:55:42;100646.50;;;12.68;100.00
58243;BME280;50118;53.232;8.252;2023-08-30T00:58:07;100648.81;;;12.71;100.00
58243;BME280;50118;53.232;8.252;2023-08-30T01:00:37;100636.81;;;12.76;100.00
58243;BME280;50118;53.232;8.252;2023-08-30T01:03:03;100634.63;;;12.71;100.00
58243;BME280;50118;53.232;8.252;2023-08-30T01:05:30;100643.81;;;12.77;100.00
58243;BME280;50118;53.232;8.252;2023-08-30T01:07:56;100636.16;;;12.74;100.00
58243;BME280;50118;53.232;8.252;2023-08-30T01:10:28;100632.94;;;12.70;100.00
58243;BME280;50118;53.232;8.252;2023-08-30T01:13:04;100626.44;;;12.73;100.00
58243;BME280;50118;53.232;8.252;2023-08-30T01:15:34;100632.63;;;12.73;100.00
58243;BME280;50118;53.232;8.252;2023-08-30T01:18:02;100636.16;;;12.74;100.00
58243;BME280;50118;53.232;8.252;2023-08-30T01:20:35;100631.78;;;12.73;100.00
58243;BME280;50118;53.232;8.252;2023-08-30T01:23:52;100624.75;;;12.71;100.00
58243;BME280;50118;53.232;8.252;2023-08-30T01:26:14;100625.78;;;12.70;100.00
58243;BME280;50118;53.232;8.252;2023-08-30T01:28:48;100618.75;;;12.69;100.00
58243;BME280;50118;53.232;8.252;2023-08-30T01:31:15;100621.44;;;12.69;100.00
58243;BME280;50118;53.232;8.252;2023-08-30T01:33:42;100614.91;;;12.64;100.00
58243;BME280;50118;53.232;8.252;2023-08-30T01:36:08;100613.88;;;12.65;100.00
58243;BME280;50118;53.232;8.252;2023-08-30T01:38:35;100620.59;;;12.69;100.00
58243;BME280;50118;53.232;8.252;2023-08-30T01:41:01;100618.41;;;12.64;100.00
58243;BME280;50118;53.232;8.252;2023-08-30T01:43:28;100624.91;;;12.62;100.00
58243;BME280;50118;53.232;8.252;2023-08-30T01:45:55;100617.38;;;12.57;100.00
58243;BME280;50118;53.232;8.252;2023-08-30T01:48:22;100614.50;;;12.50;100.00
58243;BME280;50118;53.232;8.252;2023-08-30T01:50:49;100617.50;;;12.47;100.00
58243;BME280;50118;53.232;8.252;2023-08-30T01:53:25;100623.00;;;12.46;100.00
58243;BME280;50118;53.232;8.252;2023-08-30T01:55:57;100620.47;;;12.44;100.00
58243;BME280;50118;53.232;8.252;2023-08-30T01:58:22;100619.31;;;12.39;100.00
58243;BME280;50118;53.232;8.252;2023-08-30T02:00:53;100616.78;;;12.37;100.00
58243;BME280;50118;53.232;8.252;2023-08-30T02:03:21;100615.97;;;12.37;100.00
58243;BME280;50118;53.232;8.252;2023-08-30T02:05:57;100615.13;;;12.36;100.00
58243;BME280;50118;53.232;8.252;2023-08-30T02:08:36;100617.63;;;12.38;100.00
58243;BME280;50118;53.232;8.252;2023-08-30T02:11:07;100617.97;;;12.35;100.00
58243;BME280;50118;53.232;8.252;2023-08-30T02:13:38;100625.28;;;12.32;100.00
58243;BME280;50118;53.232;8.252;2023-08-30T02:16:05;100625.78;;;12.28;100.00
58243;BME280;50118;53.232;8.252;2023-08-30T02:18:32;100622.91;;;12.21;100.00
58243;BME280;50118;53.232;8.252;2023-08-30T02:21:01;100626.25;;;12.23;100.00
58243;BME280;50118;53.232;8.252;2023-08-30T02:23:49;100629.88;;;12.22;100.00
58243;BME280;50118;53.232;8.252;2023-08-30T02:26:12;100619.22;;;12.22;100.00
58243;BME280;50118;53.232;8.252;2023-08-30T02:28:38;100618.06;;;12.25;100.00
58243;BME280;50118;53.232;8.252;2023-08-30T02:31:06;100610.16;;;12.15;100.00
58243;BME280;50118;53.232;8.252;2023-08-30T02:33:31;100618.19;;;12.15;100.00
58243;BME280;50118;53.232;8.252;2023-08-30T02:36:06;100612.00;;;12.14;100.00
58243;BME280;50118;53.232;8.252;2023-08-30T02:38:34;100616.34;;;12.15;100.00
58243;BME280;50118;53.232;8.252;2023-08-30T02:40:59;100612.31;;;12.11;100.00
58243;BME280;50118;53.232;8.252;2023-08-30T02:43:25;100619.34;;;12.12;100.00
58243;BME280;50118;53.232;8.252;2023-08-30T02:45:53;100616.53;;;12.14;100.00
58243;BME280;50118;53.232;8.252;2023-08-30T02:48:24;100613.50;;;12.09;100.00
58243;BME280;50118;53.232;8.252;2023-08-30T02:50:57;100608.78;;;12.03;100.00
58243;BME280;50118;53.232;8.252;2023-08-30T02:53:26;100605.78;;;12.06;100.00
58243;BME280;50118;53.232;8.252;2023-08-30T02:55:52;100606.78;;;12.05;100.00
58243;BME280;50118;53.232;8.252;2023-08-30T02:58:20;100614.31;;;12.09;100.00
58243;BME280;50118;53.232;8.252;2023-08-30T03:00:46;100615.44;;;12.07;100.00
58243;BME280;50118;53.232;8.252;2023-08-30T03:03:21;100614.25;;;12.01;100.00
58243;BME280;50118;53.232;8.252;2023-08-30T03:05:50;100606.25;;;12.01;100.00
58243;BME280;50118;53.232;8.252;2023-08-30T03:08:19;100603.13;;;12.06;100.00
58243;BME280;50118;53.232;8.252;2023-08-30T03:10:44;100608.16;;;12.09;100.00
58243;BME280;50118;53.232;8.252;2023-08-30T03:13:16;100608.50;;;12.14;100.00
58243;BME280;50118;53.232;8.252;2023-08-30T03:15:41;100613.16;;;12.12;100.00
58243;BME280;50118;53.232;8.252;2023-08-30T03:18:10;100609.03;;;12.18;100.00
58243;BME280;50118;53.232;8.252;2023-08-30T03:20:42;100611.19;;;12.14;100.00
58243;BME280;50118;53.232;8.252;2023-08-30T03:23:08;100607.81;;;12.12;100.00
58243;BME280;50118;53.232;8.252;2023-08-30T03:25:36;100601.78;;;12.10;100.00
58243;BME280;50118;53.232;8.252;2023-08-30T03:28:05;100607.81;;;12.12;100.00
58243;BME280;50118;53.232;8.252;2023-08-30T03:30:30;100599.84;;;12.20;100.00
58243;BME280;50118;53.232;8.252;2023-08-30T03:32:56;100605.50;;;12.17;100.00
58243;BME280;50118;53.232;8.252;2023-08-30T03:35:22;100609.19;;;12.16;100.00
58243;BME280;50118;53.232;8.252;2023-08-30T03:37:48;100600.84;;;12.19;100.00
58243;BME280;50118;53.232;8.252;2023-08-30T03:40:13;100601.16;;;12.16;100.00
58243;BME280;50118;53.232;8.252;2023-08-30T03:42:39;100589.81;;;12.14;100.00
58243;BME280;50118;53.232;8.252;2023-08-30T03:45:05;100597.50;;;12.17;100.00
58243;BME280;50118;53.232;8.252;2023-08-30T03:47:31;100597.84;;;12.14;100.00
58243;BME280;50118;53.232;8.252;2023-08-30T03:49:57;100598.44;;;12.08;100.00
58243;BME280;50118;53.232;8.252;2023-08-30T03:52:23;100589.56;;;11.99;100.00
58243;BME280;50118;53.232;8.252;2023-08-30T03:54:55;100593.69;;;11.93;100.00
58243;BME280;50118;53.232;8.252;2023-08-30T03:57:21;100592.69;;;11.94;100.00
58243;BME280;50118;53.232;8.252;2023-08-30T03:59:46;100588.34;;;11.93;100.00
58243;BME280;50118;53.232;8.252;2023-08-30T04:02:12;100584.28;;;11.89;100.00
58243;BME280;50118;53.232;8.252;2023-08-30T04:04:40;100584.44;;;11.88;100.00
58243;BME280;50118;53.232;8.252;2023-08-30T04:07:08;100580.59;;;11.82;100.00
58243;BME280;50118;53.232;8.252;2023-08-30T04:09:34;100575.25;;;11.82;100.00
58243;BME280;50118;53.232;8.252;2023-08-30T04:12:00;100570.75;;;11.83;100.00
58243;BME280;50118;53.232;8.252;2023-08-30T04:14:29;100566.56;;;11.80;100.00
58243;BME280;50118;53.232;8.252;2023-08-30T04:16:54;100570.38;;;11.77;100.00
58243;BME280;50118;53.232;8.252;2023-08-30T04:19:20;100562.53;;;11.76;100.00
58243;BME280;50118;53.232;8.252;2023-08-30T04:21:45;100550.13;;;11.67;100.00
58243;BME280;50118;53.232;8.252;2023-08-30T04:24:11;100546.78;;;11.65;100.00
58243;BME280;50118;53.232;8.252;2023-08-30T04:26:43;100544.81;;;11.67;100.00
58243;BME280;50118;53.232;8.252;2023-08-30T04:29:19;100552.50;;;11.70;100.00
58243;BME280;50118;53.232;8.252;2023-08-30T04:31:45;100550.75;;;11.61;100.00
58243;BME280;50118;53.232;8.252;2023-08-30T04:34:14;100551.41;;;11.54;100.00
58243;BME280;50118;53.232;8.252;2023-08-30T04:36:42;100549.81;;;11.44;100.00
58243;BME280;50118;53.232;8.252;2023-08-30T04:39:07;100543.13;;;11.39;100.00
58243;BME280;50118;53.232;8.252;2023-08-30T04:41:33;100539.94;;;11.36;100.00
58243;BME280;50118;53.232;8.252;2023-08-30T04:43:59;100543.88;;;11.32;100.00
58243;BME280;50118;53.232;8.252;2023-08-30T04:46:30;100539.84;;;11.28;100.00
58243;BME280;50118;53.232;8.252;2023-08-30T04:48:56;100539.34;;;11.24;100.00
58243;BME280;50118;53.232;8.252;2023-08-30T04:51:21;100541.00;;;11.25;100.00
58243;BME280;50118;53.232;8.252;2023-08-30T04:53:47;100542.81;;;11.25;100.00
58243;BME280;50118;53.232;8.252;2023-08-30T04:56:15;100537.66;;;11.23;100.00
58243;BME280;50118;53.232;8.252;2023-08-30T04:58:43;100535.13;;;11.21;100.00
58243;BME280;50118;53.232;8.252;2023-08-30T05:01:09;100537.50;;;11.25;100.00
58243;BME280;50118;53.232;8.252;2023-08-30T05:03:39;100534.31;;;11.21;100.00
58243;BME280;50118;53.232;8.252;2023-08-30T05:06:04;100543.28;;;11.20;100.00
58243;BME280;50118;53.232;8.252;2023-08-30T05:08:31;100532.00;;;11.26;100.00
58243;BME280;50118;53.232;8.252;2023-08-30T05:10:57;100536.50;;;11.26;100.00
58243;BME280;50118;53.232;8.252;2023-08-30T05:13:22;100537.19;;;11.28;100.00
58243;BME280;50118;53.232;8.252;2023-08-30T05:15:48;100535.06;;;11.31;100.00
58243;BME280;50118;53.232;8.252;2023-08-30T05:18:13;100533.22;;;11.32;100.00
58243;BME280;50118;53.232;8.252;2023-08-30T05:20:39;100526.59;;;11.36;100.00
58243;BME280;50118;53.232;8.252;2023-08-30T05:23:05;100527.72;;;11.33;100.00
58243;BME280;50118;53.232;8.252;2023-08-30T05:25:30;100533.28;;;11.40;100.00
58243;BME280;50118;53.232;8.252;2023-08-30T05:27:56;100525.94;;;11.42;100.00
58243;BME280;50118;53.232;8.252;2023-08-30T05:30:24;100525.34;;;11.48;100.00
58243;BME280;50118;53.232;8.252;2023-08-30T05:32:55;100523.03;;;11.53;100.00
58243;BME280;50118;53.232;8.252;2023-08-30T05:35:23;100522.09;;;11.63;100.00
58243;BME280;50118;53.232;8.252;2023-08-30T05:37:49;100516.81;;;11.71;100.00
58243;BME280;50118;53.232;8.252;2023-08-30T05:40:19;100516.84;;;11.79;100.00
58243;BME280;50118;53.232;8.252;2023-08-30T05:42:47;100518.53;;;11.80;100.00
58243;BME280;50118;53.232;8.252;2023-08-30T05:45:14;100520.63;;;11.94;100.00
58243;BME280;50118;53.232;8.252;2023-08-30T05:47:42;100509.84;;;12.04;100.00
58243;BME280;50118;53.232;8.252;2023-08-30T05:50:08;100509.72;;;12.14;100.00
58243;BME280;50118;53.232;8.252;2023-08-30T05:52:34;100508.94;;;12.30;100.00
58243;BME280;50118;53.232;8.252;2023-08-30T05:55:00;100506.13;;;12.40;100.00
58243;BME280;50118;53.232;8.252;2023-08-30T05:57:25;100497.31;;;12.56;100.00
58243;BME280;50118;53.232;8.252;2023-08-30T05:59:52;100508.84;;;12.73;100.00
58243;BME280;50118;53.232;8.252;2023-08-30T06:02:18;100491.50;;;13.01;100.00
58243;BME280;50118;53.232;8.252;2023-08-30T06:04:44;100510.22;;;13.34;100.00
58243;BME280;50118;53.232;8.252;2023-08-30T06:07:09;100500.03;;;13.46;100.00
58243;BME280;50118;53.232;8.252;2023-08-30T06:09:35;100501.81;;;13.62;100.00
58243;BME280;50118;53.232;8.252;2023-08-30T06:12:00;100505.91;;;13.97;100.00
58243;BME280;50118;53.232;8.252;2023-08-30T06:14:26;100512.63;;;14.33;100.00
58243;BME280;50118;53.232;8.252;2023-08-30T06:17:09;100502.16;;;14.46;100.00
58243;BME280;50118;53.232;8.252;2023-08-30T06:20:01;100501.63;;;14.82;100.00
58243;BME280;50118;53.232;8.252;2023-08-30T06:22:28;100504.44;;;14.89;100.00
58243;BME280;50118;53.232;8.252;2023-08-30T06:28:51;100507.66;;;15.60;100.00
58243;BME280;50118;53.232;8.252;2023-08-30T06:31:24;100490.47;;;15.84;100.00
58243;BME280;50118;53.232;8.252;2023-08-30T06:34:26;100493.84;;;16.23;100.00
58243;BME280;50118;53.232;8.252;2023-08-30T06:36:52;100500.78;;;16.17;100.00
58243;BME280;50118;53.232;8.252;2023-08-30T06:45:44;100504.03;;;16.64;100.00
58243;BME280;50118;53.232;8.252;2023-08-30T06:48:19;100491.09;;;16.74;97.21
58243;BME280;50118;53.232;8.252;2023-08-30T06:50:52;100497.16;;;16.98;98.02
58243;BME280;50118;53.232;8.252;2023-08-30T06:53:30;100498.47;;;17.65;95.78
58243;BME280;50118;53.232;8.252;2023-08-30T06:56:01;100495.91;;;17.85;91.38
58243;BME280;50118;53.232;8.252;2023-08-30T06:58:44;100498.19;;;18.23;87.90
58243;BME280;50118;53.232;8.252;2023-08-30T07:01:12;100499.34;;;18.69;86.51
58243;BME280;50118;53.232;8.252;2023-08-30T07:03:38;100492.53;;;18.80;83.24
58243;BME280;50118;53.232;8.252;2023-08-30T07:06:05;100489.44;;;18.83;82.42
58243;BME280;50118;53.232;8.252;2023-08-30T07:08:30;100483.66;;;18.93;82.63
58243;BME280;50118;53.232;8.252;2023-08-30T07:10:56;100486.38;;;19.26;82.13
58243;BME280;50118;53.232;8.252;2023-08-30T07:13:21;100479.47;;;18.77;80.98
58243;BME280;50118;53.232;8.252;2023-08-30T07:15:47;100478.66;;;19.36;77.15
58243;BME280;50118;53.232;8.252;2023-08-30T07:18:13;100479.03;;;19.73;74.17
58243;BME280;50118;53.232;8.252;2023-08-30T07:20:41;100481.47;;;20.40;73.37
58243;BME280;50118;53.232;8.252;2023-08-30T07:23:07;100489.06;;;20.57;70.02
58243;BME280;50118;53.232;8.252;2023-08-30T07:25:32;100487.00;;;20.65;69.78
58243;BME280;50118;53.232;8.252;2023-08-30T07:27:59;100488.47;;;20.93;68.32
58243;BME280;50118;53.232;8.252;2023-08-30T07:30:25;100491.41;;;20.08;72.57
58243;BME280;50118;53.232;8.252;2023-08-30T07:32:51;100493.06;;;20.02;71.23
58243;BME280;50118;53.232;8.252;2023-08-30T07:35:16;100485.69;;;20.29;69.91
58243;BME280;50118;53.232;8.252;2023-08-30T07:37:42;100480.94;;;20.25;69.67
58243;BME280;50118;53.232;8.252;2023-08-30T07:40:08;100486.88;;;19.95;70.84
58243;BME280;50118;53.232;8.252;2023-08-30T07:42:34;100490.22;;;20.42;70.30
58243;BME280;50118;53.232;8.252;2023-08-30T07:44:59;100497.69;;;19.95;69.65
58243;BME280;50118;53.232;8.252;2023-08-30T07:47:24;100483.00;;;20.68;70.69
58243;BME280;50118;53.232;8.252;2023-08-30T07:49:50;100488.81;;;20.71;68.68
58243;BME280;50118;53.232;8.252;2023-08-30T07:52:15;100498.00;;;20.96;66.74
58243;BME280;50118;53.232;8.252;2023-08-30T07:54:43;100493.72;;;21.13;66.32
58243;BME280;50118;53.232;8.252;2023-08-30T07:57:09;100493.75;;;21.32;66.42
58243;BME280;50118;53.232;8.252;2023-08-30T07:59:36;100494.03;;;20.66;65.84
58243;BME280;50118;53.232;8.252;2023-08-30T08:02:03;100489.06;;;20.18;68.70
58243;BME280;50118;53.232;8.252;2023-08-30T08:04:29;100487.59;;;20.22;68.22
58243;BME280;50118;53.232;8.252;2023-08-30T08:06:55;100493.03;;;20.15;67.58
58243;BME280;50118;53.232;8.252;2023-08-30T08:09:20;100489.81;;;19.87;68.16
58243;BME280;50118;53.232;8.252;2023-08-30T08:11:48;100480.19;;;20.04;67.36
58243;BME280;50118;53.232;8.252;2023-08-30T08:14:17;100483.78;;;19.71;71.41
58243;BME280;50118;53.232;8.252;2023-08-30T08:16:42;100472.25;;;20.16;67.49
58243;BME280;50118;53.232;8.252;2023-08-30T08:19:09;100476.53;;;19.78;67.70
58243;BME280;50118;53.232;8.252;2023-08-30T08:21:34;100468.66;;;19.77;67.18
58243;BME280;50118;53.232;8.252;2023-08-30T08:24:00;100479.09;;;20.19;66.45
58243;BME280;50118;53.232;8.252;2023-08-30T08:26:26;100469.44;;;20.29;66.98
58243;BME280;50118;53.232;8.252;2023-08-30T08:28:53;100466.41;;;20.12;65.88
58243;BME280;50118;53.232;8.252;2023-08-30T08:31:19;100463.47;;;20.21;67.27
58243;BME280;50118;53.232;8.252;2023-08-30T08:34:04;100463.50;;;20.52;64.81
58243;BME280;50118;53.232;8.252;2023-08-30T08:36:35;100472.34;;;20.73;64.70
58243;BME280;50118;53.232;8.252;2023-08-30T08:39:07;100464.44;;;20.71;63.59
58243;BME280;50118;53.232;8.252;2023-08-30T08:41:42;100463.31;;;21.11;65.08
58243;BME280;50118;53.232;8.252;2023-08-30T08:44:11;100462.78;;;20.77;64.01
58243;BME280;50118;53.232;8.252;2023-08-30T08:46:41;100468.88;;;21.41;64.15
58243;BME280;50118;53.232;8.252;2023-08-30T08:49:16;100478.63;;;21.24;62.68
58243;BME280;50118;53.232;8.252;2023-08-30T08:51:45;100478.03;;;20.97;62.67
58243;BME280;50118;53.232;8.252;2023-08-30T08:54:28;100476.09;;;21.04;63.78
58243;BME280;50118;53.232;8.252;2023-08-30T08:57:08;100470.59;;;20.85;64.00
58243;BME280;50118;53.232;8.252;2023-08-30T08:59:51;100462.31;;;20.80;64.36
58243;BME280;50118;53.232;8.252;2023-08-30T09:02:23;100465.25;;;21.73;61.34
58243;BME280;50118;53.232;8.252;2023-08-30T09:04:49;100476.78;;;21.43;59.82
58243;BME280;50118;53.232;8.252;2023-08-30T09:07:24;100473.25;;;21.17;61.50
58243;BME280;50118;53.232;8.252;2023-08-30T09:10:09;100463.28;;;21.36;61.41
58243;BME280;50118;53.232;8.252;2023-08-30T09:12:35;100464.09;;;21.99;58.68
58243;BME280;50118;53.232;8.252;2023-08-30T09:15:00;100473.16;;;21.31;57.19
58243;BME280;50118;53.232;8.252;2023-08-30T09:17:38;100478.75;;;20.47;60.17
58243;BME280;50118;53.232;8.252;2023-08-30T09:20:09;100482.84;;;20.63;59.60
58243;BME280;50118;53.232;8.252;2023-08-30T09:22:42;100481.47;;;20.79;60.74
58243;BME280;50118;53.232;8.252;2023-08-30T09:25:23;100480.03;;;21.26;60.71
58243;BME280;50118;53.232;8.252;2023-08-30T09:27:57;100477.69;;;21.37;58.31
58243;BME280;50118;53.232;8.252;2023-08-30T09:30:36;100467.50;;;21.57;60.91
58243;BME280;50118;53.232;8.252;2023-08-30T09:33:02;100473.53;;;21.59;58.80
58243;BME280;50118;53.232;8.252;2023-08-30T09:35:31;100459.66;;;21.49;57.40
58243;BME280;50118;53.232;8.252;2023-08-30T09:37:57;100465.50;;;22.20;54.06
58243;BME280;50118;53.232;8.252;2023-08-30T09:43:12;100448.50;;;21.94;50.97
58243;BME280;50118;53.232;8.252;2023-08-30T09:45:50;100453.63;;;21.66;54.11
58243;BME280;50118;53.232;8.252;2023-08-30T09:48:37;100442.22;;;20.95;53.36
58243;BME280;50118;53.232;8.252;2023-08-30T09:51:04;100430.69;;;21.24;52.59
58243;BME280;50118;53.232;8.252;2023-08-30T09:53:44;100438.75;;;21.93;51.04
58243;BME280;50118;53.232;8.252;2023-08-30T09:56:13;100435.72;;;22.01;51.34
58243;BME280;50118;53.232;8.252;2023-08-30T09:58:40;100435.09;;;21.99;54.98
58243;BME280;50118;53.232;8.252;2023-08-30T10:01:11;100439.56;;;22.43;51.21
58243;BME280;50118;53.232;8.252;2023-08-30T10:03:37;100425.50;;;22.46;51.85
58243;BME280;50118;53.232;8.252;2023-08-30T10:06:03;100428.09;;;22.10;51.44
58243;BME280;50118;53.232;8.252;2023-08-30T10:08:31;100419.31;;;21.59;53.76
58243;BME280;50118;53.232;8.252;2023-08-30T10:11:07;100412.97;;;21.66;54.43
58243;BME280;50118;53.232;8.252;2023-08-30T10:13:56;100420.22;;;21.90;53.83
58243;BME280;50118;53.232;8.252;2023-08-30T10:16:26;100426.81;;;21.94;53.31
58243;BME280;50118;53.232;8.252;2023-08-30T10:22:04;100421.03;;;22.40;52.83
58243;BME280;50118;53.232;8.252;2023-08-30T10:24:37;100416.41;;;21.17;55.47
58243;BME280;50118;53.232;8.252;2023-08-30T10:27:05;100419.97;;;21.11;56.64
58243;BME280;50118;53.232;8.252;2023-08-30T10:29:36;100422.66;;;20.93;56.21
58243;BME280;50118;53.232;8.252;2023-08-30T10:32:05;100413.53;;;21.56;55.53
58243;BME280;50118;53.232;8.252;2023-08-30T10:34:36;100406.28;;;21.87;55.40
58243;BME280;50118;53.232;8.252;2023-08-30T10:37:09;100421.28;;;21.52;55.18
58243;BME280;50118;53.232;8.252;2023-08-30T10:39:40;100415.47;;;21.05;56.88
58243;BME280;50118;53.232;8.252;2023-08-30T10:42:10;100404.34;;;20.31;59.42
58243;BME280;50118;53.232;8.252;2023-08-30T10:44:52;100402.97;;;20.15;61.90
58243;BME280;50118;53.232;8.252;2023-08-30T10:47:18;100408.94;;;19.85;61.03
58243;BME280;50118;53.232;8.252;2023-08-30T10:49:44;100403.88;;;20.41;60.16
58243;BME280;50118;53.232;8.252;2023-08-30T10:52:11;100402.25;;;20.33;59.46
58243;BME280;50118;53.232;8.252;2023-08-30T10:54:40;100402.59;;;20.11;61.56
58243;BME280;50118;53.232;8.252;2023-08-30T10:57:18;100399.00;;;19.79;61.43
58243;BME280;50118;53.232;8.252;2023-08-30T11:00:09;100396.19;;;19.40;65.22
58243;BME280;50118;53.232;8.252;2023-08-30T11:02:36;100388.97;;;19.14;66.29
58243;BME280;50118;53.232;8.252;2023-08-30T11:05:08;100396.47;;;18.92;65.70
58243;BME280;50118;53.232;8.252;2023-08-30T11:07:36;100402.28;;;19.02;67.39
58243;BME280;50118;53.232;8.252;2023-08-30T11:10:04;100388.56;;;19.04;66.91
58243;BME280;50118;53.232;8.252;2023-08-30T11:12:30;100392.88;;;19.25;67.64
58243;BME280;50118;53.232;8.252;2023-08-30T11:14:56;100392.72;;;19.00;66.94
58243;BME280;50118;53.232;8.252;2023-08-30T11:17:26;100396.06;;;19.09;66.69
58243;BME280;50118;53.232;8.252;2023-08-30T11:19:57;100387.56;;;18.92;67.63
58243;BME280;50118;53.232;8.252;2023-08-30T11:22:27;100379.63;;;18.63;69.16
58243;BME280;50118;53.232;8.252;2023-08-30T11:24:53;100374.84;;;18.59;71.36
58243;BME280;50118;53.232;8.252;2023-08-30T11:27:19;100374.03;;;18.58;70.21
58243;BME280;50118;53.232;8.252;2023-08-30T11:29:50;100376.28;;;18.28;70.96
58243;BME280;50118;53.232;8.252;2023-08-30T11:32:19;100381.16;;;17.98;72.07
58243;BME280;50118;53.232;8.252;2023-08-30T11:34:57;100384.72;;;18.05;72.46
58243;BME280;50118;53.232;8.252;2023-08-30T11:37:29;100373.53;;;18.08;72.76
58243;BME280;50118;53.232;8.252;2023-08-30T11:40:04;100361.69;;;17.96;73.13
58243;BME280;50118;53.232;8.252;2023-08-30T11:42:31;100367.72;;;18.11;74.83
58243;BME280;50118;53.232;8.252;2023-08-30T11:44:58;100362.59;;;18.29;75.77
58243;BME280;50118;53.232;8.252;2023-08-30T11:47:26;100350.56;;;18.32;77.39
58243;BME280;50118;53.232;8.252;2023-08-30T11:49:57;100366.13;;;18.57;75.31
58243;BME280;50118;53.232;8.252;2023-08-30T11:52:23;100362.41;;;18.58;72.93
58243;BME280;50118;53.232;8.252;2023-08-30T11:54:55;100375.47;;;18.47;74.20
58243;BME280;50118;53.232;8.252;2023-08-30T11:57:24;100371.06;;;18.26;74.82
58243;BME280;50118;53.232;8.252;2023-08-30T11:59:51;100373.50;;;18.01;76.07
58243;BME280;50118;53.232;8.252;2023-08-30T12:02:23;100372.84;;;17.92;77.04
58243;BME280;50118;53.232;8.252;2023-08-30T12:05:01;100366.31;;;18.15;75.99
58243;BME280;50118;53.232;8.252;2023-08-30T12:07:40;100361.91;;;18.01;75.36
58243;BME280;50118;53.232;8.252;2023-08-30T12:10:11;100371.84;;;18.00;77.79
58243;BME280;50118;53.232;8.252;2023-08-30T12:12:44;100374.31;;;17.88;78.13
58243;BME280;50118;53.232;8.252;2023-08-30T12:15:16;100365.22;;;17.89;78.27
58243;BME280;50118;53.232;8.252;2023-08-30T12:17:42;100362.66;;;17.81;78.68
58243;BME280;50118;53.232;8.252;2023-08-30T12:20:15;100359.28;;;17.66;78.77
58243;BME280;50118;53.232;8.252;2023-08-30T12:22:48;100359.81;;;17.89;79.50
58243;BME280;50118;53.232;8.252;2023-08-30T12:25:23;100362.72;;;17.95;78.38
58243;BME280;50118;53.232;8.252;2023-08-30T12:27:49;100349.84;;;17.90;78.91
58243;BME280;50118;53.232;8.252;2023-08-30T12:30:16;100360.56;;;17.77;79.18
58243;BME280;50118;53.232;8.252;2023-08-30T12:32:43;100349.78;;;17.77;77.29
58243;BME280;50118;53.232;8.252;2023-08-30T12:35:09;100341.66;;;17.63;79.07
58243;BME280;50118;53.232;8.252;2023-08-30T12:37:40;100345.00;;;17.72;78.82
58243;BME280;50118;53.232;8.252;2023-08-30T12:41:15;100341.38;;;17.51;79.29
58243;BME280;50118;53.232;8.252;2023-08-30T12:43:44;100340.59;;;17.58;79.68
58243;BME280;50118;53.232;8.252;2023-08-30T12:46:20;100334.84;;;17.67;81.05
58243;BME280;50118;53.232;8.252;2023-08-30T12:49:06;100329.47;;;17.67;81.31
58243;BME280;50118;53.232;8.252;2023-08-30T12:51:32;100325.22;;;17.51;83.23
58243;BME280;50118;53.232;8.252;2023-08-30T12:54:00;100325.06;;;17.60;81.86
58243;BME280;50118;53.232;8.252;2023-08-30T12:56:26;100312.44;;;17.67;82.73
58243;BME280;50118;53.232;8.252;2023-08-30T12:58:52;100309.94;;;17.59;85.63
58243;BME280;50118;53.232;8.252;2023-08-30T13:01:18;100317.22;;;17.65;88.18
58243;BME280;50118;53.232;8.252;2023-08-30T13:03:44;100321.94;;;17.56;90.34
58243;BME280;50118;53.232;8.252;2023-08-30T13:06:10;100311.91;;;17.36;97.56
58243;BME280;50118;53.232;8.252;2023-08-30T13:08:35;100317.28;;;17.30;100.00
58243;BME280;50118;53.232;8.252;2023-08-30T13:11:00;100312.47;;;17.18;100.00
58243;BME280;50118;53.232;8.252;2023-08-30T13:13:26;100314.28;;;17.11;100.00